Time;durP1;ratioP1;P1;durP2;ratioP2;P2;SDS_P1;SDS_P2;PMS_P1;PMS_P2;Temp;Humidity;BMP_temperature;BMP_pressure;BME280_temperature;BME280_humidity;BME280_pressure;Samples;Min_cycle;Max_cycle;Signal;HPM_P1;HPM_P2
2023/11/09 00:00:07;;;;;;;10.43;5.67;;;;;;;8.81;100.00;102458.06;4965869;28;20277;-78
2023/11/09 00:02:32;;;;;;;9.77;5.27;;;;;;;8.93;100.00;102464.06;4966315;28;20228;-76
2023/11/09 00:04:58;;;;;;;6.97;5.33;;;;;;;8.22;100.00;102358.47;4949106;28;20438;-79
2023/11/09 00:07:24;;;;;;;8.00;5.47;;;;;;;8.29;100.00;102370.25;4950311;28;20188;-80
2023/11/09 00:09:52;;;;;;;10.73;5.13;;;;;;;8.70;100.00;102445.69;4955200;28;20230;-76
2023/11/09 00:12:21;;;;;;;10.20;5.23;;;;;;;8.73;100.00;102448.06;4973139;28;20218;-77
2023/11/09 00:14:50;;;;;;;11.57;6.07;;;;;;;8.96;100.00;102483.34;4953923;28;20469;-78
2023/11/09 00:17:16;;;;;;;7.43;5.10;;;;;;;8.94;100.00;102485.34;4975303;28;20450;-78
2023/11/09 00:19:42;;;;;;;8.50;5.33;;;;;;;8.91;100.00;102498.16;4970940;28;20473;-80
2023/11/09 00:22:09;;;;;;;6.03;4.93;;;;;;;8.83;100.00;102470.31;4973378;28;20465;-76
2023/11/09 00:24:34;;;;;;;6.90;5.23;;;;;;;8.64;100.00;102438.25;4976083;28;20193;-77
2023/11/09 00:27:00;;;;;;;8.90;4.90;;;;;;;8.96;100.00;102485.16;4955869;28;22959;-79
2023/11/09 00:29:26;;;;;;;6.10;4.30;;;;;;;8.75;100.00;102462.16;4975720;28;20915;-77
2023/11/09 00:31:51;;;;;;;7.57;4.90;;;;;;;8.82;100.00;102473.09;4972176;28;20252;-78
2023/11/09 00:34:16;;;;;;;6.60;4.53;;;;;;;8.71;100.00;102442.06;4977365;28;20240;-77
2023/11/09 00:36:42;;;;;;;7.53;4.10;;;;;;;8.84;100.00;102447.06;4978095;28;20210;-76
2023/11/09 00:39:11;;;;;;;8.07;4.27;;;;;;;9.01;100.00;102482.91;4979818;28;20638;-76
2023/11/09 00:41:37;;;;;;;9.67;4.60;;;;;;;9.01;100.00;102475.72;4961313;28;20213;-78
2023/11/09 00:44:03;;;;;;;7.03;4.30;;;;;;;8.94;100.00;102474.63;4977040;28;20433;-78
2023/11/09 00:46:28;;;;;;;9.17;4.63;;;;;;;8.77;100.00;102443.31;4980973;28;20189;-82
2023/11/09 00:48:53;;;;;;;10.40;5.17;;;;;;;9.02;100.00;102481.91;4979481;28;20237;-77
2023/11/09 00:51:19;;;;;;;11.57;3.80;;;;;;;8.77;100.00;102438.78;4977398;28;20213;-80
2023/11/09 00:53:44;;;;;;;5.50;2.93;;;;;;;8.97;100.00;102465.47;4957855;28;20208;-77
2023/11/09 00:56:10;;;;;;;5.27;3.53;;;;;;;8.98;100.00;102453.75;4960436;28;20692;-77
2023/11/09 00:58:36;;;;;;;6.07;3.10;;;;;;;8.91;100.00;102463.34;4972949;28;20649;-77
2023/11/09 01:01:02;;;;;;;8.60;3.43;;;;;;;8.80;100.00;102449.19;4974212;28;20464;-76
2023/11/09 01:03:27;;;;;;;5.30;3.20;;;;;;;9.08;100.00;102488.50;4963966;28;20247;-77
2023/11/09 01:06:00;;;;;;;7.33;2.90;;;;;;;9.04;100.00;102475.41;4977414;28;20934;-78
2023/11/09 01:08:25;;;;;;;7.90;3.37;;;;;;;8.75;100.00;102435.41;4976312;28;20198;-76
2023/11/09 01:10:51;;;;;;;8.90;3.43;;;;;;;9.07;100.00;102484.13;4978320;28;20817;-80
2023/11/09 01:13:16;;;;;;;5.80;3.57;;;;;;;9.01;100.00;102474.88;4974241;28;20747;-78
2023/11/09 01:15:42;;;;;;;7.33;3.50;;;;;;;8.93;100.00;102461.38;4979720;28;20181;-78
2023/11/09 01:18:08;;;;;;;7.80;3.63;;;;;;;9.11;100.00;102493.53;4979297;28;20487;-81
2023/11/09 01:20:34;;;;;;;5.30;2.70;;;;;;;8.78;100.00;102437.78;4978198;28;20178;-81
2023/11/09 01:23:01;;;;;;;13.73;3.00;;;;;;;8.91;100.00;102456.19;4972212;28;20437;-77
2023/11/09 01:25:26;;;;;;;7.20;2.93;;;;;;;8.59;100.00;102397.75;4959587;28;20440;-78
2023/11/09 01:27:52;;;;;;;7.90;3.20;;;;;;;8.66;100.00;102414.91;4956018;28;20465;-77
2023/11/09 01:30:17;;;;;;;8.13;2.73;;;;;;;8.98;100.00;102461.78;4978547;28;20189;-77
2023/11/09 01:32:42;;;;;;;8.70;2.70;;;;;;;8.83;100.00;102443.53;4974314;28;20254;-79
2023/11/09 01:35:08;;;;;;;9.33;2.50;;;;;;;9.14;100.00;102478.06;4974576;28;20225;-79
2023/11/09 01:37:34;;;;;;;6.47;2.83;;;;;;;9.09;100.00;102468.78;4968237;28;20217;-74
2023/11/09 01:40:00;;;;;;;4.30;2.77;;;;;;;9.11;100.00;102478.31;4975126;28;20843;-76
2023/11/09 01:42:26;;;;;;;8.07;2.83;;;;;;;9.12;100.00;102447.91;4978586;28;20198;-74
2023/11/09 01:44:51;;;;;;;4.73;2.40;;;;;;;9.01;100.00;102453.47;4976492;28;20810;-75
2023/11/09 01:47:16;;;;;;;6.00;3.20;;;;;;;8.48;100.00;102357.84;4976272;28;20190;-74
2023/11/09 01:49:43;;;;;;;6.30;2.70;;;;;;;9.12;100.00;102469.31;4957931;28;20210;-74
2023/11/09 01:52:09;;;;;;;6.97;2.80;;;;;;;8.97;100.00;102428.00;4975992;28;20212;-76
2023/11/09 01:54:35;;;;;;;7.50;2.47;;;;;;;8.85;100.00;102413.09;4975789;28;20441;-77
2023/11/09 01:57:03;;;;;;;6.90;2.50;;;;;;;8.91;100.00;102436.59;4974596;28;20221;-76
2023/11/09 01:59:31;;;;;;;6.93;2.80;;;;;;;9.10;100.00;102470.47;4977797;28;20438;-77
2023/11/09 02:01:57;;;;;;;13.80;2.67;;;;;;;8.53;100.00;102374.25;4960167;28;21700;-77
2023/11/09 02:04:24;;;;;;;5.87;3.00;;;;;;;9.25;100.00;102482.34;4974918;28;20452;-77
2023/11/09 02:06:53;;;;;;;11.00;2.70;;;;;;;9.19;100.00;102472.22;4959657;28;20442;-78
2023/11/09 02:09:20;;;;;;;8.70;2.90;;;;;;;9.30;100.00;102476.53;4974440;28;20473;-76
2023/11/09 02:11:47;;;;;;;10.07;2.87;;;;;;;9.15;100.00;102471.69;4974385;28;20461;-76
2023/11/09 02:14:14;;;;;;;7.20;2.33;;;;;;;9.18;100.00;102476.75;4958508;28;21025;-79
2023/11/09 02:16:40;;;;;;;5.63;2.17;;;;;;;9.16;100.00;102486.75;4977566;28;21158;-77
2023/11/09 02:19:07;;;;;;;8.03;2.50;;;;;;;8.95;100.00;102428.13;4974611;28;20440;-77
2023/11/09 02:21:34;;;;;;;3.80;1.87;;;;;;;9.19;100.00;102466.88;4976317;28;21759;-77
2023/11/09 02:24:02;;;;;;;5.03;2.13;;;;;;;9.20;100.00;102460.53;4978115;28;20464;-75
2023/11/09 02:26:29;;;;;;;7.33;1.80;;;;;;;8.82;100.00;102399.06;4972731;28;20444;-76
2023/11/09 02:28:54;;;;;;;4.77;2.10;;;;;;;9.05;100.00;102422.72;4974026;28;21061;-74
2023/11/09 02:31:20;;;;;;;6.17;2.10;;;;;;;9.10;100.00;102443.69;4958640;28;20479;-76
2023/11/09 02:33:45;;;;;;;9.10;2.00;;;;;;;9.15;100.00;102428.88;4976147;28;20189;-75
2023/11/09 02:36:11;;;;;;;5.60;2.10;;;;;;;8.90;100.00;102416.19;4974751;28;20213;-78
2023/11/09 02:38:36;;;;;;;5.33;1.90;;;;;;;9.10;100.00;102449.03;4976426;28;20847;-75
2023/11/09 02:41:02;;;;;;;9.33;2.63;;;;;;;9.01;100.00;102419.50;4962079;28;20203;-76
2023/11/09 02:43:27;;;;;;;4.77;2.13;;;;;;;9.20;100.00;102448.00;4959911;28;20253;-78
2023/11/09 02:45:57;;;;;;;5.10;2.80;;;;;;;8.90;100.00;102384.06;4983220;28;20185;-75
2023/11/09 02:48:23;;;;;;;4.73;1.83;;;;;;;9.25;100.00;102452.88;4961662;28;20218;-75
2023/11/09 02:50:48;;;;;;;5.80;2.20;;;;;;;9.22;100.00;102448.66;4978282;28;20461;-75
2023/11/09 02:53:14;;;;;;;5.47;2.60;;;;;;;9.26;100.00;102447.41;4980530;28;20196;-75
2023/11/09 02:55:40;;;;;;;3.93;2.20;;;;;;;9.25;100.00;102444.84;4978907;28;20619;-74
2023/11/09 02:58:06;;;;;;;4.53;2.30;;;;;;;9.10;100.00;102414.25;4965629;28;20261;-74
2023/11/09 03:00:31;;;;;;;4.27;2.40;;;;;;;8.99;100.00;102401.91;4958741;28;20197;-75
2023/11/09 03:02:56;;;;;;;4.63;1.87;;;;;;;9.31;100.00;102430.84;4976581;28;20436;-75
2023/11/09 03:05:22;;;;;;;5.80;2.03;;;;;;;9.41;100.00;102436.16;4973992;28;20194;-75
2023/11/09 03:07:48;;;;;;;3.27;1.90;;;;;;;9.20;100.00;102421.22;4974329;28;20188;-74
2023/11/09 03:10:15;;;;;;;3.23;1.90;;;;;;;9.25;100.00;102418.91;4979370;28;20445;-74
2023/11/09 03:12:41;;;;;;;3.60;2.07;;;;;;;8.57;100.00;102315.00;4977928;28;20385;-74
2023/11/09 03:15:09;;;;;;;4.30;1.90;;;;;;;9.16;100.00;102406.44;4963015;28;20524;-75
2023/11/09 03:17:37;;;;;;;4.40;2.17;;;;;;;9.12;100.00;102390.84;4958862;28;20187;-75
2023/11/09 03:20:02;;;;;;;3.63;1.80;;;;;;;9.25;100.00;102410.88;4979091;28;20445;-75
2023/11/09 03:22:30;;;;;;;6.57;2.13;;;;;;;9.05;100.00;102394.13;4960775;28;20470;-74
2023/11/09 03:24:55;;;;;;;3.10;1.67;;;;;;;9.17;100.00;102396.56;4958670;28;21319;-76
2023/11/09 03:27:20;;;;;;;4.50;3.03;;;;;;;9.13;100.00;102400.56;4973930;23;20543;-70
2023/11/09 03:29:46;;;;;;;5.23;2.47;;;;;;;8.68;100.00;102313.09;4972714;28;20209;-70
2023/11/09 03:32:11;;;;;;;8.13;2.00;;;;;;;9.36;100.00;102412.50;4978164;28;20248;-70
2023/11/09 03:34:37;;;;;;;4.77;2.00;;;;;;;9.33;100.00;102409.28;4963364;28;20299;-70
2023/11/09 03:37:03;;;;;;;4.67;2.60;;;;;;;9.13;100.00;102390.69;4960963;28;20575;-70
2023/11/09 03:39:28;;;;;;;3.80;2.20;;;;;;;9.27;100.00;102400.88;4971329;28;20437;-70
2023/11/09 03:41:54;;;;;;;3.33;1.90;;;;;;;9.09;100.00;102370.56;4965666;28;20623;-70
2023/11/09 03:44:20;;;;;;;3.40;2.00;;;;;;;9.18;100.00;102399.09;4973259;28;20222;-70
2023/11/09 03:46:50;;;;;;;4.10;2.50;;;;;;;8.93;100.00;102340.97;4972612;28;20184;-70
2023/11/09 03:49:16;;;;;;;3.90;2.83;;;;;;;9.13;100.00;102388.00;4976275;28;20210;-70
2023/11/09 03:51:41;;;;;;;3.90;2.30;;;;;;;9.22;100.00;102387.09;4956699;28;20452;-70
2023/11/09 03:54:07;;;;;;;4.87;2.77;;;;;;;8.99;100.00;102356.41;4971078;28;20194;-70
2023/11/09 03:56:32;;;;;;;3.40;2.33;;;;;;;9.26;100.00;102398.38;4975452;28;20577;-70
2023/11/09 03:58:57;;;;;;;5.10;2.70;;;;;;;9.18;100.00;102387.56;4977005;28;20324;-70
2023/11/09 04:01:23;;;;;;;4.37;3.10;;;;;;;8.91;100.00;102350.97;4980748;28;20398;-70
2023/11/09 04:03:49;;;;;;;5.37;3.20;;;;;;;9.16;100.00;102398.41;4974148;28;20193;-70
2023/11/09 04:06:18;;;;;;;5.83;3.23;;;;;;;9.15;100.00;102414.66;4961918;28;20461;-70
2023/11/09 04:08:44;;;;;;;5.40;3.27;;;;;;;9.14;100.00;102413.81;4974443;28;20591;-70
2023/11/09 04:11:10;;;;;;;4.83;2.80;;;;;;;9.21;100.00;102417.53;4965126;28;20457;-70
2023/11/09 04:13:35;;;;;;;8.03;3.37;;;;;;;9.23;100.00;102420.94;4974847;28;20464;-70
2023/11/09 04:16:02;;;;;;;4.60;3.10;;;;;;;8.79;100.00;102342.31;4974747;28;20194;-70
2023/11/09 04:18:27;;;;;;;5.40;3.27;;;;;;;9.08;100.00;102401.00;4968878;28;20193;-70
2023/11/09 04:20:53;;;;;;;4.70;2.70;;;;;;;8.95;100.00;102376.44;4969418;28;20526;-70
2023/11/09 04:23:18;;;;;;;4.53;3.30;;;;;;;9.15;100.00;102414.66;4974628;28;20530;-70
2023/11/09 04:25:44;;;;;;;5.03;3.10;;;;;;;9.12;100.00;102413.09;4975939;28;20186;-70
2023/11/09 04:28:10;;;;;;;4.53;3.60;;;;;;;8.96;100.00;102396.84;4969253;28;20771;-70
2023/11/09 04:30:36;;;;;;;4.97;3.10;;;;;;;9.14;100.00;102418.28;4954427;28;20458;-70
2023/11/09 04:33:09;;;;;;;5.00;3.40;;;;;;;9.11;100.00;102424.78;4971546;28;20528;-70
2023/11/09 04:35:35;;;;;;;5.83;3.47;;;;;;;9.13;100.00;102425.47;4969672;28;20225;-70
2023/11/09 04:38:02;;;;;;;5.20;3.13;;;;;;;8.66;100.00;102339.16;4972731;28;20477;-70
2023/11/09 04:40:28;;;;;;;4.50;2.90;;;;;;;9.20;100.00;102429.25;4973882;28;20818;-70
2023/11/09 04:42:56;;;;;;;7.93;3.20;;;;;;;8.92;100.00;102398.16;4972971;28;20449;-70
2023/11/09 04:45:22;;;;;;;7.17;2.87;;;;;;;9.07;100.00;102399.31;4956158;28;20194;-70
2023/11/09 04:47:54;;;;;;;4.00;3.13;;;;;;;9.12;100.00;102405.06;4952611;28;21013;-70
2023/11/09 04:50:27;;;;;;;9.90;3.67;;;;;;;9.12;100.00;102421.13;4950009;28;20807;-70
2023/11/09 04:53:41;;;;;;;3.80;2.77;;;;;;;9.14;100.00;102415.63;4960247;28;20441;-70
2023/11/09 04:55:53;;;;;;;3.73;2.70;;;;;;;8.89;100.00;102385.91;4970042;28;20507;-70
2023/11/09 04:58:44;;;;;;;4.47;3.07;;;;;;;9.14;100.00;102412.94;4969800;28;20444;-70
2023/11/09 05:06:55;;;;;;;5.63;3.40;;;;;;;8.94;100.00;102385.44;4906381;28;20861;-70
2023/11/09 05:09:27;;;;;;;7.30;2.97;;;;;;;9.15;100.00;102415.47;4975848;28;20966;-70
2023/11/09 05:11:53;;;;;;;5.93;3.20;;;;;;;9.11;100.00;102410.56;4976567;28;21027;-70
2023/11/09 05:14:19;;;;;;;8.90;4.03;;;;;;;9.14;100.00;102412.94;4953846;28;20441;-70
2023/11/09 05:16:44;;;;;;;7.10;3.47;;;;;;;9.25;100.00;102408.19;4979890;28;21026;-70
2023/11/09 05:19:12;;;;;;;6.23;3.37;;;;;;;9.16;100.00;102392.22;4958318;28;20194;-70
2023/11/09 05:21:39;;;;;;;11.73;4.63;;;;;;;9.09;100.00;102417.94;4974293;28;20222;-70
2023/11/09 05:24:04;;;;;;;6.10;3.87;;;;;;;8.98;100.00;102363.59;4971293;28;20441;-70
2023/11/09 05:26:32;;;;;;;7.30;3.97;;;;;;;9.21;100.00;102390.78;4974331;28;20449;-70
2023/11/09 05:28:58;;;;;;;6.37;3.57;;;;;;;9.16;100.00;102386.88;4974755;28;21490;-70
2023/11/09 05:31:24;;;;;;;4.97;3.30;;;;;;;9.20;100.00;102390.91;4973967;28;20853;-70
2023/11/09 05:33:54;;;;;;;6.40;3.77;;;;;;;9.14;100.00;102387.03;4977645;28;20440;-70
2023/11/09 05:36:23;;;;;;;7.37;4.53;;;;;;;9.03;100.00;102384.56;4978368;28;20774;-70
2023/11/09 05:38:49;;;;;;;7.10;4.13;;;;;;;8.42;100.00;102295.09;4977470;28;20441;-70
2023/11/09 05:41:17;;;;;;;8.93;4.97;;;;;;;9.16;100.00;102400.25;4976422;28;20448;-70
2023/11/09 05:43:43;;;;;;;12.57;5.13;;;;;;;9.02;100.00;102391.72;4958409;28;20709;-70
2023/11/09 05:46:09;;;;;;;10.87;4.33;;;;;;;9.21;100.00;102409.50;4976517;28;20515;-70
2023/11/09 05:48:35;;;;;;;8.17;4.20;;;;;;;9.19;100.00;102410.66;4979537;28;20480;-73
2023/11/09 05:51:00;;;;;;;7.73;4.47;;;;;;;9.18;100.00;102412.50;4982427;28;20311;-76
2023/11/09 05:53:29;;;;;;;3.93;2.50;;;;;;;9.00;100.00;102364.28;4989592;28;20251;-74
2023/11/09 05:55:55;;;;;;;4.60;3.00;;;;;;;8.93;100.00;102370.41;4980605;28;20788;-70
2023/11/09 05:58:21;;;;;;;5.23;3.07;;;;;;;9.24;100.00;102409.22;4979307;28;20499;-71
2023/11/09 06:00:46;;;;;;;5.43;2.50;;;;;;;9.14;100.00;102402.22;4976404;28;20469;-71
2023/11/09 06:03:11;;;;;;;4.97;2.83;;;;;;;9.24;100.00;102411.88;4978067;28;20194;-71
2023/11/09 06:05:39;;;;;;;3.83;2.60;;;;;;;9.41;100.00;102422.78;4958838;28;20579;-72
2023/11/09 06:08:04;;;;;;;3.90;2.63;;;;;;;9.37;100.00;102410.66;4975199;28;20615;-71
2023/11/09 06:10:30;;;;;;;5.00;3.10;;;;;;;9.34;100.00;102405.63;4968244;28;20665;-71
2023/11/09 06:12:56;;;;;;;5.47;3.60;;;;;;;9.35;100.00;102404.63;4951998;28;20185;-71
2023/11/09 06:15:22;;;;;;;4.67;3.30;;;;;;;9.38;100.00;102356.97;4971157;28;20273;-71
2023/11/09 06:17:47;;;;;;;5.00;3.90;;;;;;;9.34;100.00;102381.50;4971213;28;20532;-71
2023/11/09 06:20:15;;;;;;;5.20;3.60;;;;;;;9.38;100.00;102407.84;4965343;28;20182;-71
2023/11/09 06:22:41;;;;;;;5.30;4.20;;;;;;;9.34;100.00;102403.78;4970852;28;20656;-71
2023/11/09 06:25:07;;;;;;;6.00;5.07;;;;;;;9.35;100.00;102407.31;4969917;28;20451;-71
2023/11/09 06:27:33;;;;;;;5.60;4.70;;;;;;;9.30;100.00;102404.25;4966516;28;20278;-71
2023/11/09 06:29:59;;;;;;;6.20;5.43;;;;;;;9.34;100.00;102405.63;4971844;28;20939;-70
2023/11/09 06:32:25;;;;;;;7.40;5.53;;;;;;;9.18;100.00;102393.75;4969338;28;20220;-70
2023/11/09 06:34:51;;;;;;;6.07;5.47;;;;;;;9.31;100.00;102411.28;4973409;28;20189;-71
2023/11/09 06:37:16;;;;;;;8.00;6.37;;;;;;;9.00;100.00;102364.28;4966198;28;20574;-71
2023/11/09 06:39:46;;;;;;;11.70;5.87;;;;;;;9.42;100.00;102432.47;4968274;28;21299;-71
2023/11/09 06:42:12;;;;;;;6.77;5.90;;;;;;;9.46;100.00;102428.53;4951628;28;20313;-71
2023/11/09 06:44:38;;;;;;;5.50;4.90;;;;;;;9.46;100.00;102421.31;4950612;28;20821;-71
2023/11/09 06:47:04;;;;;;;6.13;4.80;;;;;;;9.49;100.00;102431.72;4967305;28;20492;-71
2023/11/09 06:49:29;;;;;;;7.57;5.73;;;;;;;9.59;100.00;102442.34;4951295;28;20486;-71
2023/11/09 06:51:56;;;;;;;5.60;4.60;;;;;;;9.62;100.00;102442.06;4969524;28;20468;-71
2023/11/09 06:54:22;;;;;;;6.37;4.70;;;;;;;9.63;100.00;102443.75;4971599;28;20220;-71
2023/11/09 06:56:48;;;;;;;5.67;4.47;;;;;;;9.61;100.00;102437.69;4970137;28;20440;-71
2023/11/09 06:59:13;;;;;;;5.33;3.57;;;;;;;9.68;100.00;102449.47;4974468;28;20445;-71
2023/11/09 07:01:39;;;;;;;4.43;3.40;;;;;;;9.63;100.00;102434.84;4970261;28;20210;-71
2023/11/09 07:04:04;;;;;;;4.70;3.17;;;;;;;9.52;100.00;102441.31;4970878;28;20190;-71
2023/11/09 07:06:30;;;;;;;4.03;2.10;;;;;;;9.59;100.00;102441.53;4968410;28;20196;-70
2023/11/09 07:08:55;;;;;;;5.07;2.67;;;;;;;9.44;100.00;102409.06;4952314;28;20215;-71
2023/11/09 07:11:21;;;;;;;6.40;2.53;;;;;;;9.47;100.00;102440.91;4970508;28;20258;-71
2023/11/09 07:13:46;;;;;;;7.67;3.20;;;;;;;9.40;100.00;102429.09;4967816;28;20275;-71
2023/11/09 07:16:12;;;;;;;6.93;3.30;;;;;;;9.44;100.00;102430.50;4953705;28;20438;-71
2023/11/09 07:18:37;;;;;;;5.70;2.80;;;;;;;9.27;100.00;102392.00;4970849;28;20186;-71
2023/11/09 07:21:03;;;;;;;8.60;3.53;;;;;;;9.51;100.00;102442.28;4970207;28;20263;-71
2023/11/09 07:23:29;;;;;;;8.47;2.73;;;;;;;9.33;100.00;102422.69;4969671;28;20190;-71
2023/11/09 07:25:55;;;;;;;7.83;3.07;;;;;;;9.39;100.00;102428.28;4975906;28;20188;-71
2023/11/09 07:28:20;;;;;;;8.40;2.60;;;;;;;9.54;100.00;102438.44;4970946;28;20462;-71
2023/11/09 07:30:48;;;;;;;9.23;3.40;;;;;;;9.46;100.00;102439.25;4953170;28;20471;-71
2023/11/09 07:33:14;;;;;;;8.70;2.47;;;;;;;9.20;100.00;102394.47;4971730;28;20182;-71
2023/11/09 07:35:44;;;;;;;7.30;3.33;;;;;;;9.25;100.00;102402.84;4969816;28;20469;-71
2023/11/09 07:38:13;;;;;;;10.10;2.80;;;;;;;9.12;100.00;102382.81;4967944;28;20516;-71
2023/11/09 07:40:40;;;;;;;9.17;2.63;;;;;;;9.36;100.00;102395.59;4969114;28;21149;-71
2023/11/09 07:43:08;;;;;;;11.90;3.20;;;;;;;9.39;100.00;102389.94;4955324;28;20590;-71
2023/11/09 07:45:34;;;;;;;11.10;2.83;;;;;;;9.24;100.00;102371.72;4955307;28;20967;-71
2023/11/09 07:47:59;;;;;;;11.00;2.63;;;;;;;9.46;100.00;102401.75;4970018;28;20548;-71
2023/11/09 07:50:24;;;;;;;9.07;2.30;;;;;;;9.42;100.00;102405.69;4972215;28;20558;-71
2023/11/09 07:52:50;;;;;;;11.13;2.90;;;;;;;9.49;100.00;102402.25;4969123;28;20209;-71
2023/11/09 07:55:19;;;;;;;10.87;3.50;;;;;;;9.55;100.00;102397.31;4970035;28;20945;-71
2023/11/09 07:57:45;;;;;;;6.33;2.30;;;;;;;9.46;100.00;102388.34;4969627;28;20186;-71
2023/11/09 08:00:11;;;;;;;5.70;2.40;;;;;;;9.53;100.00;102381.38;4966196;28;20972;-71
2023/11/09 08:02:38;;;;;;;9.77;2.77;;;;;;;9.10;100.00;102310.69;4967754;28;21202;-71
2023/11/09 08:05:05;;;;;;;10.00;3.70;;;;;;;9.17;100.00;102337.69;4968869;28;20496;-71
2023/11/09 08:07:31;;;;;;;9.97;3.30;;;;;;;9.45;100.00;102366.06;4969821;28;20445;-71
2023/11/09 08:09:56;;;;;;;7.43;3.67;;;;;;;9.35;100.00;102353.75;4971939;28;20583;-71
2023/11/09 08:12:23;;;;;;;11.73;4.50;;;;;;;9.30;100.00;102370.28;4974057;28;20708;-71
2023/11/09 08:14:49;;;;;;;8.23;3.40;;;;;;;9.23;100.00;102350.47;4979028;28;20178;-71
2023/11/09 08:17:14;;;;;;;14.30;3.63;;;;;;;9.29;100.00;102373.97;4976167;28;20457;-71
2023/11/09 08:19:40;;;;;;;12.33;3.90;;;;;;;9.43;100.00;102384.13;4975105;28;20188;-71
2023/11/09 08:22:05;;;;;;;13.27;3.73;;;;;;;9.22;100.00;102372.88;4971820;28;20213;-71
2023/11/09 08:24:32;;;;;;;12.97;4.13;;;;;;;9.57;100.00;102380.03;4971882;28;20187;-71
2023/11/09 08:26:58;;;;;;;13.60;4.77;;;;;;;9.33;100.00;102361.09;4955869;28;20189;-70
2023/11/09 08:29:24;;;;;;;12.43;3.90;;;;;;;9.44;100.00;102358.19;4971208;28;20469;-71
2023/11/09 08:31:49;;;;;;;14.50;4.40;;;;;;;9.28;100.00;102351.66;4973371;28;20202;-70
2023/11/09 08:34:16;;;;;;;13.23;3.10;;;;;;;9.24;100.00;102355.66;4956448;28;21000;-71
2023/11/09 08:36:41;;;;;;;14.27;3.30;;;;;;;9.31;100.00;102344.34;4972580;28;20189;-71
2023/11/09 08:39:09;;;;;;;14.90;3.37;;;;;;;9.18;100.00;102352.75;4974162;28;21011;-71
2023/11/09 08:41:37;;;;;;;12.10;3.43;;;;;;;9.44;100.00;102363.53;4972668;28;20692;-71
2023/11/09 08:44:03;;;;;;;19.60;3.67;;;;;;;9.05;100.00;102351.31;4973160;28;20450;-71
2023/11/09 08:46:28;;;;;;;16.93;3.70;;;;;;;9.18;100.00;102329.50;4972519;28;20437;-71
2023/11/09 08:48:54;;;;;;;14.50;3.80;;;;;;;9.40;100.00;102354.97;4969533;28;20210;-71
2023/11/09 08:51:20;;;;;;;12.47;3.90;;;;;;;9.43;100.00;102357.34;4973708;28;20618;-71
2023/11/09 08:53:46;;;;;;;17.23;4.33;;;;;;;9.33;100.00;102342.34;4968112;28;20729;-71
2023/11/09 08:56:11;;;;;;;16.63;4.70;;;;;;;9.33;100.00;102345.88;4955689;28;20447;-70
2023/11/09 08:58:39;;;;;;;24.13;5.13;;;;;;;9.39;100.00;102339.88;4972815;28;20217;-70
2023/11/09 09:01:16;;;;;;;14.83;3.77;;;;;;;9.53;100.00;102337.66;4972533;28;20569;-71
2023/11/09 09:03:43;;;;;;;16.10;4.40;;;;;;;9.33;100.00;102310.22;4968349;28;20455;-71
2023/11/09 09:06:11;;;;;;;21.10;4.70;;;;;;;9.62;100.00;102328.69;4972284;28;21027;-71
2023/11/09 09:08:37;;;;;;;14.27;4.30;;;;;;;9.68;100.00;102320.88;4959775;28;20543;-70
2023/11/09 09:11:02;;;;;;;13.00;4.33;;;;;;;9.64;100.00;102313.31;4983043;28;21046;-71
2023/11/09 09:13:28;;;;;;;17.70;5.20;;;;;;;9.49;100.00;102286.25;4983800;28;20190;-71
2023/11/09 09:15:53;;;;;;;15.27;4.20;;;;;;;9.26;100.00;102248.44;4970497;28;20273;-71
2023/11/09 09:18:22;;;;;;;14.13;4.20;;;;;;;9.71;100.00;102296.44;4970472;28;20440;-70
2023/11/09 09:20:48;;;;;;;16.10;4.70;;;;;;;9.63;100.00;102268.75;4971160;28;20288;-71
2023/11/09 09:23:14;;;;;;;17.63;4.13;;;;;;;9.67;100.00;102280.84;4954684;28;20449;-71
2023/11/09 09:25:39;;;;;;;13.03;3.87;;;;;;;9.60;100.00;102269.91;4973454;28;20446;-70
2023/11/09 09:28:09;;;;;;;16.80;4.20;;;;;;;9.55;100.00;102260.69;4969398;28;20193;-70
2023/11/09 09:30:35;;;;;;;13.60;3.60;;;;;;;9.57;100.00;102262.19;4973362;28;20197;-68
2023/11/09 09:33:03;;;;;;;16.33;3.87;;;;;;;9.49;100.00;102238.03;4973373;28;21202;-68
2023/11/09 09:35:30;;;;;;;18.33;3.63;;;;;;;9.41;100.00;102220.06;4971972;28;20527;-68
2023/11/09 09:37:59;;;;;;;14.33;3.37;;;;;;;9.32;100.00;102172.00;4969710;28;21101;-68
2023/11/09 09:40:29;;;;;;;17.37;4.50;;;;;;;9.49;100.00;102200.53;4973691;28;20444;-68
2023/11/09 09:42:56;;;;;;;15.67;4.03;;;;;;;9.59;100.00;102201.25;4953961;28;21044;-68
2023/11/09 09:45:30;;;;;;;14.17;3.40;;;;;;;9.55;100.00;102183.00;4973327;28;20455;-69
2023/11/09 09:48:00;;;;;;;17.83;3.43;;;;;;;9.38;100.00;102144.56;4974234;28;20450;-68
2023/11/09 09:50:34;;;;;;;16.57;3.67;;;;;;;9.77;100.00;102171.69;4953105;28;20993;-68
2023/11/09 09:53:01;;;;;;;14.33;2.33;;;;;;;9.86;100.00;102157.34;4969464;28;20804;-68
2023/11/09 09:55:27;;;;;;;14.30;3.20;;;;;;;9.38;100.00;102104.41;4974550;28;20527;-68
2023/11/09 09:57:54;;;;;;;17.10;3.50;;;;;;;9.88;100.00;102131.22;4957949;28;21091;-68
2023/11/09 10:00:25;;;;;;;16.33;3.30;;;;;;;9.88;100.00;102091.03;4974634;28;20542;-68
2023/11/09 10:02:54;;;;;;;17.73;3.00;;;;;;;9.72;100.00;102075.75;4969322;28;20441;-68
2023/11/09 10:05:21;;;;;;;17.47;4.00;;;;;;;9.90;100.00;102080.16;4972736;28;20483;-68
2023/11/09 10:08:15;;;;;;;23.37;4.20;;;;;;;9.84;100.00;102070.09;4970155;28;20451;-68
2023/11/09 10:10:50;;;;;;;17.27;4.13;;;;;;;9.95;100.00;102048.31;4950954;28;20484;-68
2023/11/09 10:13:18;;;;;;;15.33;3.43;;;;;;;10.11;100.00;102021.53;4972101;28;20475;-68
2023/11/09 10:15:44;;;;;;;23.33;4.03;;;;;;;10.05;100.00;101998.06;4969949;28;20476;-68
2023/11/09 10:18:11;;;;;;;19.43;4.27;;;;;;;10.23;100.00;101965.72;4965887;28;20986;-68
2023/11/09 10:20:38;;;;;;;12.10;3.37;;;;;;;10.10;100.00;101914.47;4971488;28;20899;-68
2023/11/09 10:23:05;;;;;;;17.03;3.17;;;;;;;10.30;100.00;101891.69;4970560;28;20540;-68
2023/11/09 10:25:32;;;;;;;13.37;2.70;;;;;;;10.40;100.00;101875.38;4970038;28;20440;-68
2023/11/09 10:28:01;;;;;;;17.40;4.03;;;;;;;10.36;100.00;101820.44;4970231;28;20463;-68
2023/11/09 10:30:29;;;;;;;18.67;4.40;;;;;;;10.51;100.00;101812.50;4971879;28;20444;-68
2023/11/09 10:33:05;;;;;;;13.30;3.63;;;;;;;10.50;100.00;101778.63;4971252;28;20953;-67
2023/11/09 10:35:31;;;;;;;14.33;3.50;;;;;;;10.60;100.00;101766.66;4974270;28;20508;-68
2023/11/09 10:37:57;;;;;;;11.87;3.80;;;;;;;10.11;100.00;101741.91;4977089;28;20449;-70
2023/11/09 10:40:23;;;;;;;12.40;3.20;;;;;;;10.45;100.00;101738.09;4973648;28;20194;-71
2023/11/09 10:42:51;;;;;;;16.93;3.20;;;;;;;10.55;100.00;101720.75;4967889;28;20484;-71
2023/11/09 10:45:22;;;;;;;20.93;3.37;;;;;;;10.42;100.00;101698.22;4966882;28;20445;-71
2023/11/09 10:47:52;;;;;;;14.00;3.00;;;;;;;10.01;100.00;101624.19;4973896;28;20897;-71
2023/11/09 10:50:20;;;;;;;19.13;4.47;;;;;;;10.56;100.00;101676.00;4955171;28;20477;-71
2023/11/09 10:52:46;;;;;;;15.97;3.73;;;;;;;10.44;100.00;101642.53;4972915;28;20982;-70
2023/11/09 10:55:12;;;;;;;15.80;3.53;;;;;;;10.77;100.00;101660.06;4971206;28;20444;-71
2023/11/09 10:57:43;;;;;;;12.50;2.77;;;;;;;10.77;100.00;101638.59;4969540;28;20189;-71
2023/11/09 11:00:25;;;;;;;21.33;3.70;;;;;;;10.66;100.00;101622.91;4969094;28;20178;-70
2023/11/09 11:02:53;;;;;;;18.30;3.80;;;;;;;10.84;100.00;101612.69;4968347;28;20541;-71
2023/11/09 11:05:25;;;;;;;16.67;3.20;;;;;;;10.71;100.00;101582.16;4969637;28;20441;-71
2023/11/09 11:07:57;;;;;;;12.00;2.63;;;;;;;10.91;100.00;101563.69;4969193;28;20442;-71
2023/11/09 11:10:25;;;;;;;16.57;3.53;;;;;;;10.87;100.00;101557.81;4966026;28;20444;-71
2023/11/09 11:12:53;;;;;;;11.07;2.80;;;;;;;10.63;100.00;101534.75;4967304;28;20466;-71
2023/11/09 11:15:29;;;;;;;21.60;3.80;;;;;;;10.37;100.00;101511.00;4956450;28;20444;-71
2023/11/09 11:18:09;;;;;;;16.63;3.53;;;;;;;10.37;100.00;101548.56;4975001;28;20934;-71
2023/11/09 11:20:51;;;;;;;21.33;3.77;;;;;;;10.57;100.00;101565.81;4957477;28;20448;-71
2023/11/09 11:23:37;;;;;;;12.23;2.70;;;;;;;10.71;100.00;101566.06;4968898;28;20441;-71
2023/11/09 11:26:10;;;;;;;27.53;3.57;;;;;;;10.53;100.00;101551.13;4970846;28;21099;-71